Time;durP1;ratioP1;P1;durP2;ratioP2;P2;SDS_P1;SDS_P2;PMS_P1;PMS_P2;Temp;Humidity;BMP_temperature;BMP_pressure;BME280_temperature;BME280_humidity;BME280_pressure;Samples;Min_cycle;Max_cycle;Signal;HPM_P1;HPM_P2
2023/02/24 00:02:25;;;;;;;105.35;12.48;;;;;;;;;;5021723;28;20060;-44
2023/02/24 00:04:52;;;;;;;98.47;12.73;;;;;;;;;;5019922;28;20092;-49
2023/02/24 00:07:19;;;;;;;103.13;11.32;;;;;;;;;;5020546;28;20438;-47
2023/02/24 00:09:47;;;;;;;96.07;12.27;;;;;;;;;;5021492;28;20037;-44
2023/02/24 00:12:15;;;;;;;92.10;11.32;;;;;;;;;;5028947;28;20041;-46
2023/02/24 00:14:44;;;;;;;114.70;12.27;;;;;;;;;;5031020;28;20068;-46
2023/02/24 00:17:13;;;;;;;108.50;12.45;;;;;;;;;;5024792;28;20044;-45
2023/02/24 00:19:40;;;;;;;119.28;11.95;;;;;;;;;;5019613;28;20041;-46
2023/02/24 00:22:07;;;;;;;94.82;8.90;;;;;;;;;;5011687;28;20075;-46
2023/02/24 00:24:34;;;;;;;74.90;8.35;;;;;;;;;;5016300;28;20091;-45
2023/02/24 00:27:06;;;;;;;87.47;9.32;;;;;;;;;;5030937;28;20048;-45
2023/02/24 00:29:36;;;;;;;97.35;10.43;;;;;;;;;;5031463;28;20037;-45
2023/02/24 00:32:05;;;;;;;70.63;9.43;;;;;;;;;;5018002;28;20488;-43
2023/02/24 00:34:35;;;;;;;85.63;9.23;;;;;;;;;;5028645;28;20044;-44
2023/02/24 00:37:02;;;;;;;74.10;8.30;;;;;;;;;;5025998;28;20365;-47
2023/02/24 00:39:34;;;;;;;92.22;9.13;;;;;;;;;;5010896;28;20042;-47
2023/02/24 00:42:03;;;;;;;76.32;7.32;;;;;;;;;;5010794;28;20484;-45
2023/02/24 00:44:34;;;;;;;63.83;7.60;;;;;;;;;;5010444;28;20026;-47
2023/02/24 00:47:01;;;;;;;89.05;9.00;;;;;;;;;;5010668;28;20483;-45
2023/02/24 00:49:28;;;;;;;72.97;8.75;;;;;;;;;;5010501;28;20404;-45
2023/02/24 00:51:56;;;;;;;72.82;7.07;;;;;;;;;;5010403;28;20037;-46
2023/02/24 00:54:26;;;;;;;53.28;6.38;;;;;;;;;;5009767;28;20064;-48
2023/02/24 00:56:53;;;;;;;52.38;6.03;;;;;;;;;;5009513;28;20092;-46
2023/02/24 00:59:22;;;;;;;51.67;6.35;;;;;;;;;;5009618;28;20030;-48
2023/02/24 01:01:50;;;;;;;56.50;6.88;;;;;;;;;;5009833;28;20750;-46
2023/02/24 01:04:18;;;;;;;77.13;7.15;;;;;;;;;;5010072;28;20030;-46
2023/02/24 01:06:46;;;;;;;62.95;7.47;;;;;;;;;;5009473;28;20034;-46
2023/02/24 01:09:15;;;;;;;64.85;7.45;;;;;;;;;;4991873;28;20080;-45
2023/02/24 01:14:30;;;;;;;75.68;7.53;;;;;;;;;;5008952;28;20100;-46
2023/02/24 01:16:57;;;;;;;69.00;8.52;;;;;;;;;;5009355;28;20061;-46
2023/02/24 01:19:29;;;;;;;89.78;9.00;;;;;;;;;;5009191;28;20030;-46
2023/02/24 01:21:56;;;;;;;55.20;7.80;;;;;;;;;;5020851;28;20045;-48
2023/02/24 01:24:24;;;;;;;67.78;8.57;;;;;;;;;;5026958;28;20095;-47
2023/02/24 01:26:51;;;;;;;71.22;7.22;;;;;;;;;;5029814;28;20025;-47
2023/02/24 01:29:21;;;;;;;57.53;7.97;;;;;;;;;;5029732;28;20030;-46
2023/02/24 01:31:50;;;;;;;58.30;7.10;;;;;;;;;;5029707;28;20052;-46
2023/02/24 01:34:17;;;;;;;52.78;7.53;;;;;;;;;;5027883;28;20124;-46
2023/02/24 01:36:44;;;;;;;59.13;7.18;;;;;;;;;;5019332;28;20056;-43
2023/02/24 01:39:12;;;;;;;48.55;6.80;;;;;;;;;;5011514;28;20041;-46
2023/02/24 01:41:40;;;;;;;45.88;6.90;;;;;;;;;;5020624;28;20052;-44
2023/02/24 01:44:28;;;;;;;52.78;6.60;;;;;;;;;;5009979;28;20033;-43
2023/02/24 01:46:55;;;;;;;46.17;6.03;;;;;;;;;;5019462;28;20089;-45
2023/02/24 01:49:22;;;;;;;32.00;4.72;;;;;;;;;;5010170;28;20042;-45
2023/02/24 01:51:49;;;;;;;34.85;6.10;;;;;;;;;;5027460;28;20510;-45
2023/02/24 01:54:18;;;;;;;66.65;6.30;;;;;;;;;;5016471;28;20070;-47
2023/02/24 01:56:47;;;;;;;54.35;6.47;;;;;;;;;;5025517;28;20100;-42
2023/02/24 01:59:14;;;;;;;52.28;5.60;;;;;;;;;;5025870;28;20034;-43
2023/02/24 02:01:42;;;;;;;51.05;5.53;;;;;;;;;;4999543;28;20722;-42
2023/02/24 02:04:15;;;;;;;41.28;5.03;;;;;;;;;;5033961;28;20087;-44
2023/02/24 02:06:43;;;;;;;33.25;4.28;;;;;;;;;;5032091;28;20045;-44
2023/02/24 02:09:10;;;;;;;24.67;3.45;;;;;;;;;;5014117;28;20068;-43
2023/02/24 02:11:37;;;;;;;32.58;4.40;;;;;;;;;;5014817;28;20049;-45
2023/02/24 02:14:04;;;;;;;34.85;4.28;;;;;;;;;;5013595;28;20072;-44
2023/02/24 02:16:37;;;;;;;46.15;4.47;;;;;;;;;;5013495;28;20515;-46
2023/02/24 02:19:26;;;;;;;32.88;4.57;;;;;;;;;;5013479;28;20026;-43
2023/02/24 02:22:06;;;;;;;29.20;4.25;;;;;;;;;;5025005;28;20065;-43
2023/02/24 02:24:51;;;;;;;24.75;3.63;;;;;;;;;;5030294;28;20030;-43
2023/02/24 02:27:31;;;;;;;30.58;3.72;;;;;;;;;;5023183;28;20488;-42
2023/02/24 02:30:18;;;;;;;36.47;4.13;;;;;;;;;;5022984;28;20041;-45
2023/02/24 02:33:00;;;;;;;47.05;4.13;;;;;;;;;;5023095;28;20041;-44
2023/02/24 02:35:30;;;;;;;45.65;4.05;;;;;;;;;;5020804;28;20125;-45
2023/02/24 02:38:05;;;;;;;31.40;3.40;;;;;;;;;;5012930;28;20032;-46
2023/02/24 02:40:52;;;;;;;27.52;3.53;;;;;;;;;;5013424;28;20061;-45
2023/02/24 02:43:45;;;;;;;28.42;4.03;;;;;;;;;;5013655;28;20492;-45
2023/02/24 02:46:35;;;;;;;37.63;4.20;;;;;;;;;;4983586;28;20062;-44
2023/02/24 02:49:05;;;;;;;29.85;4.10;;;;;;;;;;5021373;28;20038;-45
2023/02/24 02:51:42;;;;;;;32.70;4.55;;;;;;;;;;5019563;28;20053;-44
2023/02/24 02:54:17;;;;;;;29.35;3.60;;;;;;;;;;5013574;28;20443;-45
2023/02/24 02:56:48;;;;;;;30.73;3.72;;;;;;;;;;5013670;28;20365;-45
2023/02/24 02:59:21;;;;;;;25.35;3.72;;;;;;;;;;5013506;28;20077;-44
2023/02/24 03:01:49;;;;;;;20.67;3.00;;;;;;;;;;5013411;28;20080;-44
2023/02/24 03:04:21;;;;;;;29.30;3.80;;;;;;;;;;5013420;28;20508;-44
2023/02/24 03:06:47;;;;;;;;;;;;;;;;;;5013460;28;20049;-44
2023/02/24 03:09:23;;;;;;;18.25;2.88;;;;;;;;;;5013366;28;19909;-46
2023/02/24 03:11:58;;;;;;;26.13;3.20;;;;;;;;;;5013297;28;20026;-45
2023/02/24 03:14:28;;;;;;;21.73;2.90;;;;;;;;;;5013011;28;20053;-44
2023/02/24 03:16:59;;;;;;;22.85;3.22;;;;;;;;;;4995506;28;20394;-44
2023/02/24 03:19:31;;;;;;;27.35;3.20;;;;;;;;;;5013187;28;20022;-44
2023/02/24 03:22:05;;;;;;;22.08;2.97;;;;;;;;;;5013089;28;20038;-44
2023/02/24 03:24:35;;;;;;;24.05;3.22;;;;;;;;;;5013121;28;20033;-44
2023/02/24 03:27:12;;;;;;;22.08;3.33;;;;;;;;;;5012892;28;20034;-45
2023/02/24 03:29:39;;;;;;;34.65;3.60;;;;;;;;;;5012931;28;20038;-44
2023/02/24 03:32:14;;;;;;;24.52;3.33;;;;;;;;;;5012767;28;20109;-44
2023/02/24 03:34:46;;;;;;;28.98;3.35;;;;;;;;;;5013019;28;20487;-44
2023/02/24 03:37:14;;;;;;;19.92;2.90;;;;;;;;;;5012719;28;20397;-44
2023/02/24 03:39:41;;;;;;;24.83;3.40;;;;;;;;;;5012767;28;20056;-45
2023/02/24 03:42:17;;;;;;;26.48;3.10;;;;;;;;;;5012717;28;20057;-44
2023/02/24 03:44:48;;;;;;;27.73;3.03;;;;;;;;;;5012943;28;20450;-45
2023/02/24 03:47:16;;;;;;;17.98;2.53;;;;;;;;;;5012538;28;20032;-45
2023/02/24 03:49:44;;;;;;;25.95;2.97;;;;;;;;;;5012700;28;20044;-44
2023/02/24 03:52:23;;;;;;;15.63;2.97;;;;;;;;;;5012469;28;20029;-44
2023/02/24 03:55:08;;;;;;;14.68;2.72;;;;;;;;;;5012663;28;20084;-45
2023/02/24 03:57:58;;;;;;;14.07;2.42;;;;;;;;;;5012400;28;20025;-44
2023/02/24 04:00:33;;;;;;;19.40;3.03;;;;;;;;;;5012216;28;20061;-45
2023/02/24 04:03:16;;;;;;;14.88;2.35;;;;;;;;;;5012352;28;20786;-45
2023/02/24 04:05:47;;;;;;;14.35;2.08;;;;;;;;;;4994888;28;20037;-45
2023/02/24 04:08:15;;;;;;;22.27;2.95;;;;;;;;;;5012276;28;20108;-44
2023/02/24 04:10:56;;;;;;;17.05;2.33;;;;;;;;;;5012241;28;20026;-44
2023/02/24 04:13:34;;;;;;;11.00;1.85;;;;;;;;;;5012012;28;20492;-44
2023/02/24 04:16:17;;;;;;;12.45;2.30;;;;;;;;;;5012230;28;20116;-45
2023/02/24 04:18:47;;;;;;;7.90;1.80;;;;;;;;;;5011695;28;20038;-44
2023/02/24 04:21:15;;;;;;;13.73;2.22;;;;;;;;;;5012139;28;20431;-44
2023/02/24 04:23:43;;;;;;;11.27;1.90;;;;;;;;;;5012044;28;20037;-44
2023/02/24 04:26:12;;;;;;;14.98;2.50;;;;;;;;;;5011937;28;20025;-44
2023/02/24 04:28:39;;;;;;;10.90;1.95;;;;;;;;;;5012032;28;20026;-44
2023/02/24 04:31:09;;;;;;;15.68;1.90;;;;;;;;;;5011784;28;20435;-44
2023/02/24 04:33:37;;;;;;;17.15;1.80;;;;;;;;;;5011418;28;20054;-45
2023/02/24 04:36:05;;;;;;;11.68;2.42;;;;;;;;;;5011911;28;20445;-44
2023/02/24 04:38:32;;;;;;;20.63;3.03;;;;;;;;;;5011732;28;20439;-46
2023/02/24 04:40:59;;;;;;;13.82;2.15;;;;;;;;;;5011779;28;20137;-44
2023/02/24 04:43:26;;;;;;;14.18;2.30;;;;;;;;;;5011741;28;20033;-45
2023/02/24 04:45:54;;;;;;;10.98;2.05;;;;;;;;;;5011685;28;20026;-44
2023/02/24 04:48:21;;;;;;;14.23;2.28;;;;;;;;;;5011586;28;20044;-45
2023/02/24 04:50:53;;;;;;;8.95;2.30;;;;;;;;;;5011666;28;20026;-45
2023/02/24 04:53:26;;;;;;;15.95;2.50;;;;;;;;;;5011461;28;20563;-44
2023/02/24 04:55:55;;;;;;;11.10;2.22;;;;;;;;;;5011424;28;20044;-45
2023/02/24 04:58:28;;;;;;;18.17;2.33;;;;;;;;;;5011462;28;20061;-45
2023/02/24 05:00:56;;;;;;;14.38;2.03;;;;;;;;;;5011404;28;20113;-45
2023/02/24 05:03:28;;;;;;;10.25;1.85;;;;;;;;;;5011341;28;20049;-45
2023/02/24 05:05:59;;;;;;;15.68;2.50;;;;;;;;;;5011276;28;20502;-45
2023/02/24 05:08:28;;;;;;;15.82;2.38;;;;;;;;;;5011461;28;20033;-45
2023/02/24 05:11:02;;;;;;;9.57;1.98;;;;;;;;;;5011345;28;20084;-45
2023/02/24 05:13:30;;;;;;;12.60;1.60;;;;;;;;;;5011209;28;20530;-45
2023/02/24 05:16:07;;;;;;;10.98;2.05;;;;;;;;;;5011342;28;20037;-45
2023/02/24 05:18:37;;;;;;;14.18;2.38;;;;;;;;;;5011247;28;20026;-46
2023/02/24 05:23:52;;;;;;;11.93;2.08;;;;;;;;;;5011624;28;20033;-46
2023/02/24 05:26:20;;;;;;;10.93;1.60;;;;;;;;;;5011202;28;20022;-45
2023/02/24 05:28:51;;;;;;;18.83;2.10;;;;;;;;;;5011148;28;20041;-45
2023/02/24 05:31:26;;;;;;;18.10;2.60;;;;;;;;;;5014111;28;20483;-45
2023/02/24 05:33:56;;;;;;;10.57;1.80;;;;;;;;;;5014808;28;20061;-46
2023/02/24 05:36:23;;;;;;;8.90;1.73;;;;;;;;;;5014989;28;20042;-45
2023/02/24 05:39:05;;;;;;;11.68;2.25;;;;;;;;;;5015178;28;20499;-45
2023/02/24 05:41:34;;;;;;;19.30;2.15;;;;;;;;;;5014952;28;20117;-45
2023/02/24 05:44:07;;;;;;;13.02;2.30;;;;;;;;;;5014994;28;20069;-45
2023/02/24 05:46:36;;;;;;;12.88;1.90;;;;;;;;;;5014660;28;20116;-45
2023/02/24 05:49:08;;;;;;;8.82;2.15;;;;;;;;;;5014909;28;20057;-46
2023/02/24 05:51:36;;;;;;;7.80;1.95;;;;;;;;;;5014881;28;20029;-45
2023/02/24 05:54:04;;;;;;;11.25;2.25;;;;;;;;;;5014757;28;20034;-46
2023/02/24 05:56:32;;;;;;;5.95;1.70;;;;;;;;;;4997080;28;20038;-45
2023/02/24 05:59:03;;;;;;;16.17;1.88;;;;;;;;;;5014601;28;20480;-45
2023/02/24 06:01:35;;;;;;;6.55;1.80;;;;;;;;;;5013440;28;20025;-44
2023/02/24 06:04:06;;;;;;;8.40;2.00;;;;;;;;;;5014519;28;20053;-44
2023/02/24 06:06:37;;;;;;;10.00;1.90;;;;;;;;;;5014469;28;20026;-45
2023/02/24 06:09:11;;;;;;;5.90;1.73;;;;;;;;;;4996837;28;20038;-45
2023/02/24 06:11:39;;;;;;;6.18;1.75;;;;;;;;;;5014507;28;20080;-44
2023/02/24 06:14:06;;;;;;;9.00;1.98;;;;;;;;;;5014465;28;20034;-44
2023/02/24 06:16:34;;;;;;;13.93;2.28;;;;;;;;;;5014394;28;20391;-45
2023/02/24 06:19:01;;;;;;;14.18;1.75;;;;;;;;;;5014341;28;20121;-45
2023/02/24 06:21:28;;;;;;;8.10;1.55;;;;;;;;;;5014299;28;20021;-44
2023/02/24 06:23:59;;;;;;;7.38;1.70;;;;;;;;;;5014273;28;20083;-47
2023/02/24 06:26:32;;;;;;;12.30;1.90;;;;;;;;;;5014333;28;20030;-46
2023/02/24 06:28:59;;;;;;;9.95;1.73;;;;;;;;;;5014110;28;20120;-45
2023/02/24 06:31:27;;;;;;;13.90;1.77;;;;;;;;;;5014041;28;20022;-45
2023/02/24 06:33:54;;;;;;;10.18;1.45;;;;;;;;;;5013753;28;20061;-45
2023/02/24 06:36:22;;;;;;;8.05;1.90;;;;;;;;;;5013915;28;20116;-45
2023/02/24 06:38:51;;;;;;;8.32;1.70;;;;;;;;;;5013915;28;20076;-44
2023/02/24 06:41:18;;;;;;;7.88;1.80;;;;;;;;;;5013459;28;20057;-45
2023/02/24 06:43:47;;;;;;;8.00;1.90;;;;;;;;;;5013960;28;20400;-44
2023/02/24 06:46:15;;;;;;;6.82;1.30;;;;;;;;;;5013796;28;20416;-46
2023/02/24 06:48:42;;;;;;;6.65;1.83;;;;;;;;;;5013917;28;20034;-44
2023/02/24 06:51:12;;;;;;;6.95;1.73;;;;;;;;;;5013804;28;20153;-44
2023/02/24 06:53:42;;;;;;;6.50;1.38;;;;;;;;;;5013891;28;20168;-46
2023/02/24 06:56:19;;;;;;;7.65;1.50;;;;;;;;;;5013412;28;20042;-45
2023/02/24 06:59:00;;;;;;;6.65;1.55;;;;;;;;;;5013734;28;20054;-46
2023/02/24 07:01:28;;;;;;;7.90;1.55;;;;;;;;;;5013935;28;20471;-45
2023/02/24 07:04:29;;;;;;;7.53;1.50;;;;;;;;;;5013597;28;20111;-45
2023/02/24 07:06:54;;;;;;;8.68;1.85;;;;;;;;;;5010403;28;20045;-45
2023/02/24 07:09:26;;;;;;;5.15;1.40;;;;;;;;;;5013459;28;20029;-46
2023/02/24 07:11:55;;;;;;;10.63;1.60;;;;;;;;;;5013325;28;20049;-45
2023/02/24 07:14:26;;;;;;;11.88;2.10;;;;;;;;;;5013213;28;20070;-47
2023/02/24 07:16:53;;;;;;;10.75;1.73;;;;;;;;;;5013204;28;20515;-46
2023/02/24 07:19:22;;;;;;;12.02;1.65;;;;;;;;;;5013302;28;20026;-45
2023/02/24 07:21:51;;;;;;;4.63;1.40;;;;;;;;;;4995523;28;20422;-45
2023/02/24 07:24:31;;;;;;;9.13;1.67;;;;;;;;;;5013296;28;20112;-45
2023/02/24 07:27:26;;;;;;;10.10;1.80;;;;;;;;;;5012973;28;20058;-45
2023/02/24 07:29:53;;;;;;;7.35;1.58;;;;;;;;;;5012952;28;20079;-46
2023/02/24 07:32:24;;;;;;;11.23;1.85;;;;;;;;;;5012697;28;20121;-45
2023/02/24 07:34:51;;;;;;;10.90;2.10;;;;;;;;;;5012979;28;20066;-45
2023/02/24 07:37:19;;;;;;;9.52;1.90;;;;;;;;;;5012705;28;20034;-46
2023/02/24 07:39:46;;;;;;;6.22;1.60;;;;;;;;;;5012780;28;20037;-46
2023/02/24 07:42:13;;;;;;;8.10;1.73;;;;;;;;;;5012779;28;20038;-45
2023/02/24 07:44:43;;;;;;;8.50;1.45;;;;;;;;;;5012749;28;20542;-46
2023/02/24 07:47:10;;;;;;;6.18;1.48;;;;;;;;;;5012605;28;20108;-45
2023/02/24 07:49:37;;;;;;;9.55;1.80;;;;;;;;;;5012556;28;20034;-45
2023/02/24 07:52:06;;;;;;;7.95;1.80;;;;;;;;;;5012144;28;20038;-45
2023/02/24 07:54:34;;;;;;;6.20;1.52;;;;;;;;;;5011939;28;20053;-45
2023/02/24 07:57:01;;;;;;;9.82;1.40;;;;;;;;;;5012468;28;20054;-44
2023/02/24 07:59:27;;;;;;;5.35;1.85;;;;;;;;;;5012511;28;20030;-44
2023/02/24 08:01:55;;;;;;;9.00;1.95;;;;;;;;;;5012452;28;20079;-44
2023/02/24 08:04:26;;;;;;;8.75;1.80;;;;;;;;;;5012355;28;20033;-44
2023/02/24 08:07:01;;;;;;;10.60;1.90;;;;;;;;;;5012331;28;20037;-44
2023/02/24 08:12:09;;;;;;;13.02;2.13;;;;;;;;;;5012316;28;20515;-44
2023/02/24 08:14:43;;;;;;;5.72;1.75;;;;;;;;;;5012375;28;20034;-44
2023/02/24 08:17:11;;;;;;;7.03;1.67;;;;;;;;;;5012014;28;20034;-44
2023/02/24 08:19:41;;;;;;;8.23;2.00;;;;;;;;;;5012154;28;20108;-44
2023/02/24 08:22:19;;;;;;;11.38;2.20;;;;;;;;;;5012057;28;20037;-45
2023/02/24 08:24:49;;;;;;;7.43;1.98;;;;;;;;;;5012021;28;20022;-44
2023/02/24 08:27:19;;;;;;;12.75;2.00;;;;;;;;;;5011716;28;20026;-44
2023/02/24 08:30:00;;;;;;;8.20;1.73;;;;;;;;;;5011830;28;20033;-44
2023/02/24 08:32:45;;;;;;;8.73;2.00;;;;;;;;;;5011432;28;20080;-44
2023/02/24 08:35:15;;;;;;;5.82;1.52;;;;;;;;;;5011754;28;20041;-45
2023/02/24 08:37:46;;;;;;;8.02;1.90;;;;;;;;;;5011797;28;20105;-45
2023/02/24 08:45:51;;;;;;;7.60;1.70;;;;;;;;;;4999338;28;20026;-44
2023/02/24 08:48:31;;;;;;;16.13;2.35;;;;;;;;;;5011561;28;20029;-44
2023/02/24 08:50:59;;;;;;;10.68;1.98;;;;;;;;;;5011388;28;20033;-45
2023/02/24 08:53:30;;;;;;;8.75;1.90;;;;;;;;;;5011395;28;20072;-44
2023/02/24 08:55:58;;;;;;;8.70;1.80;;;;;;;;;;5011378;28;20080;-44
2023/02/24 08:58:30;;;;;;;11.73;2.20;;;;;;;;;;5011462;28;20483;-45
2023/02/24 09:00:58;;;;;;;13.57;2.65;;;;;;;;;;5011429;28;20037;-44
2023/02/24 09:03:32;;;;;;;12.35;2.35;;;;;;;;;;5011235;28;20400;-44
2023/02/24 09:06:02;;;;;;;14.63;2.67;;;;;;;;;;5011119;28;20069;-44
2023/02/24 09:08:31;;;;;;;11.60;2.22;;;;;;;;;;5011263;28;20037;-46
2023/02/24 09:10:59;;;;;;;17.98;2.83;;;;;;;;;;5011231;28;20109;-46
2023/02/24 09:13:32;;;;;;;13.85;2.42;;;;;;;;;;5011050;28;20396;-44
2023/02/24 09:16:01;;;;;;;17.27;2.55;;;;;;;;;;5011160;28;20080;-44
2023/02/24 09:18:37;;;;;;;16.77;2.63;;;;;;;;;;5011296;28;20053;-44
2023/02/24 09:24:05;;;;;;;25.80;3.80;;;;;;;;;;5011399;28;20053;-45
2023/02/24 09:26:44;;;;;;;32.63;4.38;;;;;;;;;;5011054;28;20026;-44
2023/02/24 09:32:12;;;;;;;72.70;6.85;;;;;;;;;;5011344;28;20546;-44
2023/02/24 09:34:43;;;;;;;48.22;6.38;;;;;;;;;;5010949;28;20041;-45
2023/02/24 09:37:25;;;;;;;59.50;6.82;;;;;;;;;;5010977;28;20041;-46
2023/02/24 09:44:54;;;;;;;99.55;10.45;;;;;;;;;;5029376;28;20112;-48
2023/02/24 09:47:55;;;;;;;86.13;8.65;;;;;;;;;;5026601;28;20026;-46
2023/02/24 09:50:22;;;;;;;180.70;16.08;;;;;;;;;;5015995;28;20049;-48
2023/02/24 09:53:12;;;;;;;160.32;14.10;;;;;;;;;;5017272;28;20121;-46
2023/02/24 09:56:02;;;;;;;80.45;9.05;;;;;;;;;;5012943;28;20029;-49
2023/02/24 09:58:29;;;;;;;66.85;8.98;;;;;;;;;;5018285;28;20037;-47
2023/02/24 10:00:59;;;;;;;86.28;9.38;;;;;;;;;;5022256;28;20078;-46
2023/02/24 10:03:41;;;;;;;313.85;28.60;;;;;;;;;;5020739;28;20025;-48
2023/02/24 10:06:14;;;;;;;207.10;21.15;;;;;;;;;;5015897;28;20088;-47
2023/02/24 10:08:48;;;;;;;168.38;17.20;;;;;;;;;;5027927;28;20017;-46
2023/02/24 10:11:15;;;;;;;129.75;16.55;;;;;;;;;;5018280;28;20042;-47
2023/02/24 10:13:53;;;;;;;156.35;15.55;;;;;;;;;;5019126;28;20029;-47
2023/02/24 10:16:23;;;;;;;202.63;18.70;;;;;;;;;;5023834;28;20529;-46
2023/02/24 10:19:10;;;;;;;221.48;21.05;;;;;;;;;;5022098;28;20112;-46
2023/02/24 10:21:48;;;;;;;246.90;23.30;;;;;;;;;;5013707;28;20507;-45
2023/02/24 10:24:15;;;;;;;253.80;24.40;;;;;;;;;;5023583;28;20021;-44
2023/02/24 10:27:03;;;;;;;266.55;24.13;;;;;;;;;;5016017;28;20172;-47
2023/02/24 10:29:31;;;;;;;294.70;26.80;;;;;;;;;;5009587;28;20123;-45
2023/02/24 10:32:09;;;;;;;239.85;24.95;;;;;;;;;;5013718;28;20384;-49
2023/02/24 10:34:36;;;;;;;223.63;22.98;;;;;;;;;;5011704;28;20042;-45
2023/02/24 10:37:30;;;;;;;223.75;21.65;;;;;;;;;;5013322;28;20030;-49
2023/02/24 10:39:59;;;;;;;215.98;20.30;;;;;;;;;;5008989;28;20401;-48
2023/02/24 10:42:30;;;;;;;214.38;21.83;;;;;;;;;;5012152;28;20129;-48
2023/02/24 10:45:18;;;;;;;190.40;21.23;;;;;;;;;;5011618;28;20395;-48
2023/02/24 10:47:55;;;;;;;196.00;19.73;;;;;;;;;;5013321;28;20033;-47
2023/02/24 10:50:22;;;;;;;155.45;16.80;;;;;;;;;;5012168;28;20088;-50
2023/02/24 10:55:51;;;;;;;209.82;20.17;;;;;;;;;;5009363;28;20042;-49
2023/02/24 10:58:26;;;;;;;164.48;17.55;;;;;;;;;;5012488;28;20034;-46
2023/02/24 11:01:11;;;;;;;156.35;17.50;;;;;;;;;;5013037;28;20048;-46
2023/02/24 11:03:59;;;;;;;157.43;17.80;;;;;;;;;;5025723;28;20029;-45
2023/02/24 11:17:27;;;;;;;63.40;8.40;;;;;;;;;;5032390;28;21081;-37
2023/02/24 11:20:14;;;;;;;497.80;53.53;;;;;;;;;;5032184;28;20468;-42
2023/02/24 11:22:44;;;;;;;38.60;6.28;;;;;;;;;;5031683;28;20096;-44
2023/02/24 11:25:22;;;;;;;111.32;10.25;;;;;;;;;;5031520;28;20118;-44
2023/02/24 11:27:49;;;;;;;96.35;9.27;;;;;;;;;;5032345;28;20088;-43
2023/02/24 11:30:26;;;;;;;89.50;10.75;;;;;;;;;;5032200;28;20021;-45
2023/02/24 11:33:16;;;;;;;46.15;7.22;;;;;;;;;;5031867;28;20107;-42
2023/02/24 11:35:57;;;;;;;30.45;5.18;;;;;;;;;;5032087;28;20037;-44
2023/02/24 11:38:26;;;;;;;38.20;4.80;;;;;;;;;;5032285;28;20025;-43
2023/02/24 11:41:25;;;;;;;27.38;4.53;;;;;;;;;;5032012;28;20048;-43
2023/02/24 11:44:02;;;;;;;33.00;4.88;;;;;;;;;;4978083;28;20037;-43
2023/02/24 11:46:51;;;;;;;105.30;11.10;;;;;;;;;;5031954;28;20487;-43
2023/02/24 11:49:38;;;;;;;255.30;26.77;;;;;;;;;;5019683;28;20039;-38
2023/02/24 11:52:09;;;;;;;74.78;8.70;;;;;;;;;;5032265;28;20026;-38
2023/02/24 11:54:38;;;;;;;36.45;5.97;;;;;;;;;;5032134;28;20045;-38
2023/02/24 11:57:07;;;;;;;83.85;8.52;;;;;;;;;;5031946;28;20440;-38
2023/02/24 11:59:40;;;;;;;68.82;7.70;;;;;;;;;;5031781;28;20090;-38
2023/02/24 12:02:13;;;;;;;40.63;5.55;;;;;;;;;;5024026;28;20369;-38
2023/02/24 12:04:40;;;;;;;42.13;5.28;;;;;;;;;;5011191;28;20034;-38
2023/02/24 12:07:13;;;;;;;37.40;4.80;;;;;;;;;;5011840;28;20092;-39
2023/02/24 12:09:59;;;;;;;35.47;4.40;;;;;;;;;;5011782;28;20033;-39
2023/02/24 12:12:44;;;;;;;21.52;4.28;;;;;;;;;;5011665;28;20033;-39
2023/02/24 12:15:19;;;;;;;25.67;4.40;;;;;;;;;;5011891;28;20037;-39
2023/02/24 12:17:50;;;;;;;23.52;4.65;;;;;;;;;;5011622;28;20026;-39
2023/02/24 12:20:23;;;;;;;68.67;9.17;;;;;;;;;;5011774;28;20056;-39
2023/02/24 12:22:54;;;;;;;61.20;6.72;;;;;;;;;;5017688;28;20383;-39
2023/02/24 12:25:29;;;;;;;36.22;5.18;;;;;;;;;;5027788;28;20050;-39
2023/02/24 12:28:02;;;;;;;58.75;6.72;;;;;;;;;;5019409;28;20101;-38
2023/02/24 12:30:49;;;;;;;76.47;8.25;;;;;;;;;;5011298;28;20057;-38
2023/02/24 12:33:16;;;;;;;39.80;6.32;;;;;;;;;;5011294;28;20071;-39
2023/02/24 12:35:55;;;;;;;36.53;6.40;;;;;;;;;;5011138;28;20508;-40
2023/02/24 12:38:42;;;;;;;44.25;6.22;;;;;;;;;;5011047;28;20380;-41
2023/02/24 12:41:24;;;;;;;57.50;7.40;;;;;;;;;;5025749;28;20452;-42
2023/02/24 12:43:57;;;;;;;64.85;8.48;;;;;;;;;;5030963;28;20025;-42
2023/02/24 12:46:43;;;;;;;47.97;6.57;;;;;;;;;;5030987;28;20438;-41
2023/02/24 12:49:28;;;;;;;36.95;5.53;;;;;;;;;;5030996;28;20491;-41
2023/02/24 12:52:08;;;;;;;39.13;5.90;;;;;;;;;;5024722;28;20025;-41
2023/02/24 12:54:35;;;;;;;34.45;5.60;;;;;;;;;;5030831;28;20060;-41
2023/02/24 12:57:08;;;;;;;30.92;5.50;;;;;;;;;;5030834;28;20105;-40
2023/02/24 12:59:38;;;;;;;28.73;5.25;;;;;;;;;;5030908;28;20607;-41
2023/02/24 13:02:20;;;;;;;29.33;5.75;;;;;;;;;;5030725;28;20029;-41
2023/02/24 13:05:26;;;;;;;21.65;4.80;;;;;;;;;;5030819;28;20100;-40
2023/02/24 13:07:52;;;;;;;28.65;4.70;;;;;;;;;;4931381;29;20044;-41
2023/02/24 13:10:19;;;;;;;22.60;4.10;;;;;;;;;;4914934;29;20123;-40
2023/02/24 13:13:06;;;;;;;24.63;5.03;;;;;;;;;;4979508;28;20046;-41
2023/02/24 13:15:33;;;;;;;40.67;5.50;;;;;;;;;;4981004;28;20060;-40
2023/02/24 13:18:00;;;;;;;30.42;4.18;;;;;;;;;;5030093;28;20032;-41
2023/02/24 13:20:27;;;;;;;30.38;5.03;;;;;;;;;;5030621;28;20029;-40
2023/02/24 13:22:55;;;;;;;20.85;4.40;;;;;;;;;;5030648;28;20022;-40
2023/02/24 13:25:30;;;;;;;28.65;5.15;;;;;;;;;;5029769;28;20029;-40
2023/02/24 13:28:07;;;;;;;25.42;4.50;;;;;;;;;;5030448;28;20029;-41
2023/02/24 13:30:37;;;;;;;33.33;4.55;;;;;;;;;;5030344;28;20045;-41
2023/02/24 13:33:04;;;;;;;31.45;4.22;;;;;;;;;;5030099;28;20060;-41
2023/02/24 13:35:32;;;;;;;26.65;3.88;;;;;;;;;;5030422;28;20083;-41
2023/02/24 13:38:07;;;;;;;29.10;4.35;;;;;;;;;;5030466;28;20030;-41
2023/02/24 13:40:34;;;;;;;25.38;4.03;;;;;;;;;;5030267;28;20056;-41
2023/02/24 13:43:03;;;;;;;21.73;3.78;;;;;;;;;;5030292;28;20404;-41
2023/02/24 13:45:31;;;;;;;27.65;3.75;;;;;;;;;;5030110;28;20022;-40
2023/02/24 13:48:17;;;;;;;30.15;4.82;;;;;;;;;;5030304;28;20053;-41
2023/02/24 13:51:02;;;;;;;18.73;4.63;;;;;;;;;;5030567;28;20033;-41
2023/02/24 13:53:29;;;;;;;25.75;4.47;;;;;;;;;;5034118;28;20115;-41
2023/02/24 13:56:10;;;;;;;32.95;4.70;;;;;;;;;;5033771;28;20025;-41
2023/02/24 13:58:37;;;;;;;20.30;4.28;;;;;;;;;;5016594;28;20032;-41
2023/02/24 14:01:12;;;;;;;34.95;5.13;;;;;;;;;;5034033;28;20560;-41
2023/02/24 14:03:41;;;;;;;32.35;4.57;;;;;;;;;;5033653;28;20052;-41
2023/02/24 14:06:20;;;;;;;83.35;10.75;;;;;;;;;;5033779;28;20148;-41
2023/02/24 14:08:50;;;;;;;67.63;7.97;;;;;;;;;;5034017;28;20531;-41
2023/02/24 14:11:20;;;;;;;54.35;7.70;;;;;;;;;;5033243;28;20037;-41
2023/02/24 14:13:49;;;;;;;56.88;7.22;;;;;;;;;;5033760;28;20040;-41
2023/02/24 14:16:21;;;;;;;31.77;5.60;;;;;;;;;;5033503;28;20032;-39
2023/02/24 14:18:55;;;;;;;33.65;5.88;;;;;;;;;;5033318;28;20022;-39
2023/02/24 14:21:27;;;;;;;30.50;5.72;;;;;;;;;;5033620;28;20495;-39
2023/02/24 14:23:59;;;;;;;31.90;4.78;;;;;;;;;;5033687;28;20061;-40
2023/02/24 14:26:26;;;;;;;27.08;4.60;;;;;;;;;;5033587;28;20026;-39
2023/02/24 14:28:56;;;;;;;23.02;4.15;;;;;;;;;;5033561;28;20029;-39
2023/02/24 14:31:24;;;;;;;27.15;4.63;;;;;;;;;;5033721;28;20041;-39
2023/02/24 14:34:01;;;;;;;29.67;5.00;;;;;;;;;;5032842;28;20538;-40
2023/02/24 14:36:37;;;;;;;33.05;4.85;;;;;;;;;;5032793;28;20053;-41
2023/02/24 14:39:04;;;;;;;33.47;4.72;;;;;;;;;;5032740;28;20040;-41
2023/02/24 14:41:31;;;;;;;22.77;4.45;;;;;;;;;;5033433;28;20028;-42
2023/02/24 14:43:58;;;;;;;20.80;4.05;;;;;;;;;;5033409;28;20057;-41
2023/02/24 14:46:25;;;;;;;28.90;5.00;;;;;;;;;;5032959;28;20423;-41
2023/02/24 14:48:53;;;;;;;28.08;4.80;;;;;;;;;;5033087;28;20097;-41
2023/02/24 14:51:27;;;;;;;19.80;4.38;;;;;;;;;;5015295;28;20594;-41
2023/02/24 14:53:55;;;;;;;26.90;4.50;;;;;;;;;;5033206;28;20044;-41
2023/02/24 14:56:25;;;;;;;22.90;4.47;;;;;;;;;;5032989;28;20041;-40
2023/02/24 14:58:56;;;;;;;21.38;4.15;;;;;;;;;;5032926;28;20013;-41
2023/02/24 15:01:22;;;;;;;24.17;4.47;;;;;;;;;;5032745;28;20029;-41
2023/02/24 15:03:54;;;;;;;18.45;4.90;;;;;;;;;;5032730;28;20030;-41
2023/02/24 15:06:26;;;;;;;19.98;5.03;;;;;;;;;;5032932;28;20100;-42
2023/02/24 15:09:14;;;;;;;16.17;4.13;;;;;;;;;;5014912;28;20038;-41
2023/02/24 15:11:42;;;;;;;11.20;3.60;;;;;;;;;;5032870;28;20533;-41
2023/02/24 15:14:19;;;;;;;16.90;3.58;;;;;;;;;;5032678;28;20065;-40
2023/02/24 15:16:47;;;;;;;18.02;3.55;;;;;;;;;;5032418;28;20491;-41
2023/02/24 15:19:26;;;;;;;18.80;3.70;;;;;;;;;;5032730;28;20509;-41
2023/02/24 15:21:53;;;;;;;18.13;3.50;;;;;;;;;;5029834;28;20044;-41
2023/02/24 15:24:25;;;;;;;32.03;3.72;;;;;;;;;;5023155;28;20034;-41
2023/02/24 15:26:53;;;;;;;33.70;4.23;;;;;;;;;;5012549;28;20041;-42
2023/02/24 15:29:23;;;;;;;26.55;4.18;;;;;;;;;;5012909;28;20392;-42
2023/02/24 15:31:50;;;;;;;16.85;3.92;;;;;;;;;;5012516;28;20033;-42
2023/02/24 15:34:19;;;;;;;18.50;3.78;;;;;;;;;;5012448;28;20057;-42
2023/02/24 15:36:47;;;;;;;29.02;3.92;;;;;;;;;;5012552;28;20052;-43
2023/02/24 15:39:22;;;;;;;18.70;3.50;;;;;;;;;;5012521;28;20030;-42